Time;durP1;ratioP1;P1;durP2;ratioP2;P2;SDS_P1;SDS_P2;PMS_P1;PMS_P2;Temp;Humidity;BMP_temperature;BMP_pressure;BME280_temperature;BME280_humidity;BME280_pressure;Samples;Min_cycle;Max_cycle;Signal;HPM_P1;HPM_P2
2022/07/01 04:33:00;;;;;;;;;4.75;1.50;;;;;14.23;71.01;101446.69;5016428;28;45374;-70
2022/07/01 04:35:25;;;;;;;;;3.00;3.00;;;;;14.19;71.13;101446.94;5016264;28;45211;-68
2022/07/01 04:37:51;;;;;;;;;1.00;1.00;;;;;14.17;71.15;101435.34;5016055;28;45278;-70
2022/07/01 04:40:16;;;;;;;;;3.75;2.50;;;;;14.25;70.96;101446.63;5016108;28;45956;-71
2022/07/01 04:42:41;;;;;;;;;3.25;2.25;;;;;14.32;70.84;101445.38;5014784;28;45472;-68
2022/07/01 04:45:07;;;;;;;;;2.50;2.00;;;;;14.34;70.55;101452.44;4997882;28;45523;-68
2022/07/01 04:47:33;;;;;;;;;2.75;2.00;;;;;14.39;70.77;101461.19;4995614;28;45535;-69
2022/07/01 04:49:58;;;;;;;;;3.00;3.00;;;;;14.44;70.59;101460.09;4995923;28;46735;-70
2022/07/01 04:52:24;;;;;;;;;1.00;1.00;;;;;14.42;70.33;101462.00;4996216;28;45471;-69
2022/07/01 04:54:49;;;;;;;;;3.00;3.00;;;;;14.45;70.38;101468.13;4996111;28;45461;-70
2022/07/01 04:57:14;;;;;;;;;2.75;2.75;;;;;14.38;70.86;101464.84;4996250;28;45554;-69
2022/07/01 04:59:40;;;;;;;;;1.00;1.00;;;;;14.35;70.47;101445.22;4995763;28;45431;-70
2022/07/01 05:02:05;;;;;;;;;2.00;2.00;;;;;14.51;70.16;101467.81;4996036;28;45289;-70
2022/07/01 05:04:30;;;;;;;;;2.00;2.00;;;;;14.52;70.20;101468.69;4995815;28;45688;-69
2022/07/01 05:06:56;;;;;;;;;2.00;2.00;;;;;14.56;70.21;101484.63;4995936;28;45480;-69
2022/07/01 05:09:21;;;;;;;;;1.25;1.25;;;;;14.53;70.04;101468.63;4995692;28;46082;-68
2022/07/01 05:11:47;;;;;;;;;2.75;2.75;;;;;14.53;69.80;101467.75;4995992;28;45397;-69
2022/07/01 05:14:12;;;;;;;;;2.00;2.00;;;;;14.55;69.86;101474.78;4995849;28;45547;-70
2022/07/01 05:16:37;;;;;;;;;1.00;1.00;;;;;14.45;69.79;101461.84;4995673;28;45495;-70
2022/07/01 05:21:57;;;;;;;;;1.00;1.00;;;;;14.67;69.19;101484.09;4995587;28;45308;-68
2022/07/01 05:24:24;;;;;;;;;2.25;2.25;;;;;14.66;69.29;101469.72;4995965;28;45473;-68
2022/07/01 05:26:50;;;;;;;;;0.25;0.25;;;;;14.75;69.02;101479.16;4995190;28;46245;-69
2022/07/01 05:29:15;;;;;;;;;0.75;0.75;;;;;14.82;68.79;101477.91;4995584;28;46298;-70
2022/07/01 05:31:41;;;;;;;;;2.00;2.00;;;;;14.94;68.99;101482.66;4998292;28;45557;-69
2022/07/01 05:34:06;;;;;;;;;1.00;1.00;;;;;15.03;67.88;101482.19;5015163;28;45597;-70
2022/07/01 05:36:32;;;;;;;;;0.50;0.50;;;;;15.12;67.92;101480.84;5015157;28;45396;-71
2022/07/01 05:38:57;;;;;;;;;1.00;1.00;;;;;15.20;67.11;101470.50;4980713;28;46434;-68
2022/07/01 05:41:23;;;;;;;;;1.00;1.00;;;;;15.29;65.58;101483.50;5014951;28;45271;-69
2022/07/01 05:43:48;;;;;;;;;0.00;0.00;;;;;15.28;65.76;101481.75;5007667;28;45711;-71
2022/07/01 05:46:13;;;;;;;;;2.50;1.00;;;;;15.33;66.30;101476.09;5014983;28;45547;-71
2022/07/01 05:48:39;;;;;;;;;1.00;1.00;;;;;15.44;66.51;101485.38;5014789;28;46314;-74
2022/07/01 05:51:04;;;;;;;;;1.00;1.00;;;;;15.59;65.75;101482.81;5015043;28;45226;-74
2022/07/01 05:53:29;;;;;;;;;2.50;1.00;;;;;15.68;64.74;101490.41;5015092;28;45278;-72
2022/07/01 05:55:55;;;;;;;;;1.00;1.00;;;;;15.71;64.54;101480.31;4997088;28;45895;-74
2022/07/01 05:58:20;;;;;;;;;0.50;0.50;;;;;15.73;63.82;101481.13;5000318;28;46472;-71
2022/07/01 06:00:46;;;;;;;;;1.25;1.00;;;;;15.77;64.00;101493.50;5034719;28;45293;-68
2022/07/01 06:03:13;;;;;;;;;0.25;0.25;;;;;15.84;63.68;101491.31;5034378;28;45305;-69
2022/07/01 06:05:39;;;;;;;;;0.00;0.00;;;;;15.86;63.38;101486.69;5034759;28;45523;-70
2022/07/01 06:08:05;;;;;;;;;0.00;0.00;;;;;15.91;63.49;101498.13;5033825;28;46259;-71
2022/07/01 06:10:31;;;;;;;;;4.00;1.00;;;;;15.90;63.08;101493.69;5033701;28;45368;-69
2022/07/01 06:12:57;;;;;;;;;0.00;0.00;;;;;15.94;62.88;101497.09;5034444;28;45341;-69
2022/07/01 06:15:22;;;;;;;;;2.00;1.00;;;;;16.05;63.23;101498.25;5034735;28;45535;-70
2022/07/01 06:17:49;;;;;;;;;0.25;0.25;;;;;16.12;63.32;101496.03;5033876;28;46314;-71
2022/07/01 06:20:15;;;;;;;;;0.00;0.00;;;;;16.17;61.49;101494.81;5034398;28;45422;-70
2022/07/01 06:22:40;;;;;;;;;0.75;0.75;;;;;16.20;62.16;101501.88;5016580;28;45501;-68
2022/07/01 06:25:05;;;;;;;;;0.75;0.75;;;;;16.26;61.52;101506.94;5034689;28;45567;-69
2022/07/01 06:27:31;;;;;;;;;2.00;1.00;;;;;16.31;61.86;101507.56;5034341;28;45467;-69
2022/07/01 06:29:56;;;;;;;;;1.50;1.00;;;;;16.36;61.26;101502.75;5034602;28;45394;-71
2022/07/01 06:32:21;;;;;;;;;2.00;0.25;;;;;16.33;61.57;101491.25;5034432;28;45383;-69
2022/07/01 06:34:48;;;;;;;;;2.25;1.00;;;;;16.38;61.24;101495.41;5034441;28;45689;-71
2022/07/01 06:37:13;;;;;;;;;1.00;1.00;;;;;16.44;60.60;101502.31;5034092;28;45414;-70
2022/07/01 06:39:39;;;;;;;;;1.00;1.00;;;;;16.45;60.65;101501.34;5034141;28;45355;-71
2022/07/01 06:42:05;;;;;;;;;0.00;0.00;;;;;16.52;61.14;101500.91;5032088;28;45447;-69
2022/07/01 06:44:30;;;;;;;;;2.00;0.00;;;;;16.46;59.07;101501.25;4996494;28;45519;-69
2022/07/01 06:46:55;;;;;;;;;0.25;0.25;;;;;16.43;58.97;101508.69;5013974;28;45974;-69
2022/07/01 06:49:21;;;;;;;;;2.00;0.25;;;;;16.41;59.64;101510.63;5013874;28;45499;-70
2022/07/01 06:51:46;;;;;;;;;2.00;0.00;;;;;16.39;59.62;101513.41;5014796;28;45266;-70
2022/07/01 06:54:12;;;;;;;;;2.00;2.00;;;;;16.42;59.54;101517.75;5009895;28;45436;-71
2022/07/01 06:56:37;;;;;;;;;1.50;1.50;;;;;16.42;59.36;101525.88;5011896;28;45526;-70
2022/07/01 06:59:03;;;;;;;;;0.00;0.00;;;;;16.40;59.13;101527.81;5017771;28;45333;-71
2022/07/01 07:01:29;;;;;;;;;2.00;1.00;;;;;16.26;58.90;101506.94;5016273;28;45340;-70
2022/07/01 07:03:54;;;;;;;;;0.25;0.00;;;;;16.33;58.93;101519.19;5016919;28;45720;-72
2022/07/01 07:06:20;;;;;;;;;0.00;0.00;;;;;16.30;56.96;101526.59;5026187;28;45441;-70
2022/07/01 07:08:45;;;;;;;;;0.50;0.50;;;;;16.12;57.87;101505.03;5017065;28;45429;-71
2022/07/01 07:11:11;;;;;;;;;2.00;0.75;;;;;16.22;57.87;101519.78;5017405;28;45388;-71
2022/07/01 07:13:36;;;;;;;;;0.50;0.50;;;;;16.21;57.90;101507.22;5017307;28;45432;-72
2022/07/01 07:16:02;;;;;;;;;0.00;0.00;;;;;16.37;57.68;101526.16;5016784;28;45317;-72
2022/07/01 07:18:28;;;;;;;;;0.00;0.00;;;;;16.35;56.68;101516.38;5016695;28;45364;-70
2022/07/01 07:20:53;;;;;;;;;0.00;0.00;;;;;16.36;57.38;101518.13;5017034;28;45366;-72
2022/07/01 07:23:19;;;;;;;;;0.00;0.00;;;;;16.39;55.82;101523.34;5017000;28;45557;-72
2022/07/01 07:25:44;;;;;;;;;2.00;0.00;;;;;16.38;57.05;101511.66;5015103;28;45471;-72
2022/07/01 07:28:10;;;;;;;;;0.00;0.00;;;;;16.49;56.04;101519.16;5008019;28;45301;-72
2022/07/01 07:30:35;;;;;;;;;1.00;1.00;;;;;16.50;56.89;101526.34;5016977;28;45172;-70
2022/07/01 07:33:01;;;;;;;;;0.25;0.25;;;;;16.48;56.62;101517.41;5016970;28;45560;-71
2022/07/01 07:35:26;;;;;;;;;0.00;0.00;;;;;16.47;55.39;101516.53;5016886;28;45362;-71
2022/07/01 07:37:51;;;;;;;;;1.50;0.25;;;;;16.54;54.66;101519.75;5016779;28;45206;-71
2022/07/01 07:40:19;;;;;;;;;0.00;0.00;;;;;16.52;54.91;101516.25;5016864;28;45373;-70
2022/07/01 07:42:47;;;;;;;;;0.00;0.00;;;;;16.62;53.66;101522.91;5017771;28;45487;-71
2022/07/01 07:45:16;;;;;;;;;3.25;2.00;;;;;16.67;54.75;101519.97;5016157;28;45884;-71
2022/07/01 07:47:48;;;;;;;;;1.00;1.00;;;;;16.65;54.53;101511.91;5016343;28;45408;-74
2022/07/01 07:50:14;;;;;;;;;3.75;1.00;;;;;16.72;54.98;101526.84;5016641;28;45317;-72
2022/07/01 07:52:39;;;;;;;;;2.00;0.00;;;;;16.80;54.15;101520.97;5016818;28;45548;-73
2022/07/01 07:55:06;;;;;;;;;1.50;0.00;;;;;16.81;54.53;101515.47;5016495;28;45416;-72
2022/07/01 07:57:32;;;;;;;;;0.50;0.50;;;;;16.82;54.64;101508.22;5016613;28;45471;-72
2022/07/01 07:59:57;;;;;;;;;4.25;1.00;;;;;16.88;53.20;101515.97;5015571;28;45548;-73
2022/07/01 08:02:23;;;;;;;;;3.00;0.25;;;;;16.93;53.38;101516.53;5016040;28;45418;-72
2022/07/01 08:04:48;;;;;;;;;0.00;0.00;;;;;16.98;52.24;101511.75;5016140;28;46282;-73
2022/07/01 08:07:13;;;;;;;;;1.00;1.00;;;;;16.93;52.37;101498.47;5016237;28;47381;-73
2022/07/01 08:09:41;;;;;;;;;0.00;0.00;;;;;17.12;54.38;101516.31;5016319;28;45338;-73
2022/07/01 08:12:07;;;;;;;;;0.00;0.00;;;;;17.18;49.44;101519.50;5016373;28;45369;-72
2022/07/01 08:14:32;;;;;;;;;0.50;0.50;;;;;17.11;51.76;101503.72;5015912;28;45420;-72
2022/07/01 08:16:58;;;;;;;;;0.00;0.00;;;;;17.25;50.37;101523.63;5016463;28;45408;-73
2022/07/01 08:19:23;;;;;;;;;0.00;0.00;;;;;17.33;51.26;101526.72;5016056;28;45409;-71
2022/07/01 08:21:48;;;;;;;;;0.00;0.00;;;;;17.34;49.71;101523.06;5016093;28;45324;-74
2022/07/01 08:24:14;;;;;;;;;0.75;0.00;;;;;17.38;49.85;101523.72;5015984;28;46469;-73
2022/07/01 08:26:39;;;;;;;;;0.00;0.00;;;;;17.46;48.82;101526.81;5016252;28;45321;-72
2022/07/01 08:29:05;;;;;;;;;1.25;0.00;;;;;17.52;49.86;101529.19;5016167;28;45572;-72
2022/07/01 08:31:31;;;;;;;;;1.00;1.00;;;;;17.61;49.63;101531.28;5015999;28;45490;-73
2022/07/01 08:33:57;;;;;;;;;0.50;0.00;;;;;17.68;48.38;101539.97;5015620;28;46108;-72
2022/07/01 08:36:22;;;;;;;;;0.75;0.75;;;;;17.63;48.23;101542.94;5016136;28;45520;-72
2022/07/01 08:38:49;;;;;;;;;1.00;0.00;;;;;17.60;48.66;101537.72;5015909;28;45317;-72
2022/07/01 08:41:15;;;;;;;;;0.00;0.00;;;;;17.58;49.11;101530.63;5016111;28;45484;-73
2022/07/01 08:43:40;;;;;;;;;0.00;0.00;;;;;17.67;49.53;101541.81;5011481;28;45414;-72
2022/07/01 08:46:07;;;;;;;;;0.75;0.75;;;;;17.70;48.80;101536.16;5016052;28;45372;-72
2022/07/01 08:48:34;;;;;;;;;0.50;0.50;;;;;17.70;47.69;101535.28;5015115;28;45390;-72
2022/07/01 08:51:03;;;;;;;;;0.00;0.00;;;;;17.69;47.74;101533.59;5015188;28;45301;-72
2022/07/01 08:53:29;;;;;;;;;0.00;0.00;;;;;17.73;48.77;101538.69;5002589;28;46143;-72
2022/07/01 08:58:38;;;;;;;;;0.00;0.00;;;;;17.84;48.71;101550.72;5015741;28;45476;-72
2022/07/01 09:01:22;;;;;;;;;0.00;0.00;;;;;17.91;48.74;101552.06;5015408;28;45300;-69
2022/07/01 09:03:49;;;;;;;;;0.00;0.00;;;;;18.00;49.29;101551.47;5015403;28;46518;-73
2022/07/01 09:06:26;;;;;;;;;0.00;0.00;;;;;18.02;48.55;101549.56;5035105;28;45514;-72
2022/07/01 09:08:51;;;;;;;;;0.00;0.00;;;;;18.04;48.68;101544.88;5035549;28;45351;-70
2022/07/01 09:11:25;;;;;;;;;1.00;1.00;;;;;18.02;48.68;101546.84;5035260;28;45395;-69
2022/07/01 09:14:14;;;;;;;;;1.00;1.00;;;;;18.11;49.85;101538.97;5035105;28;45562;-71
2022/07/01 09:16:50;;;;;;;;;0.00;0.00;;;;;18.28;49.16;101545.16;5029551;28;45357;-70
2022/07/01 09:19:17;;;;;;;;;1.00;1.00;;;;;18.35;48.87;101538.34;5003782;28;45456;-71
2022/07/01 09:21:48;;;;;;;;;2.00;1.00;;;;;18.42;47.31;101561.41;5014928;28;45554;-70
2022/07/01 09:24:23;;;;;;;;;0.50;0.50;;;;;18.39;47.63;101561.59;4997102;28;45432;-71
2022/07/01 09:26:56;;;;;;;;;0.00;0.00;;;;;18.40;47.49;101555.19;5015124;28;45292;-72
2022/07/01 09:29:33;;;;;;;;;2.00;0.00;;;;;18.45;48.35;101562.09;5015660;28;45269;-72
2022/07/01 09:32:02;;;;;;;;;0.00;0.00;;;;;18.50;46.39;101564.47;5014806;28;45507;-70
2022/07/01 09:34:42;;;;;;;;;2.00;1.00;;;;;18.54;47.22;101555.16;5015076;28;45388;-70
2022/07/01 09:37:07;;;;;;;;;0.25;0.25;;;;;18.56;47.50;101550.47;5014910;28;45467;-70
2022/07/01 09:39:48;;;;;;;;;1.50;1.00;;;;;18.67;46.52;101561.56;5015106;28;45301;-70
2022/07/01 09:42:17;;;;;;;;;0.00;0.00;;;;;18.72;45.69;101561.22;5013851;28;45706;-70
2022/07/01 09:45:10;;;;;;;;;0.00;0.00;;;;;18.78;47.90;101549.97;5014473;28;46534;-69
2022/07/01 09:47:38;;;;;;;;;0.00;0.00;;;;;18.94;47.47;101552.53;5014725;28;45344;-71
2022/07/01 09:50:06;;;;;;;;;0.00;0.00;;;;;19.07;45.85;101561.56;5007955;28;45527;-69
2022/07/01 09:52:31;;;;;;;;;0.00;0.00;;;;;19.06;46.02;101562.53;5014680;28;45515;-71
2022/07/01 09:54:57;;;;;;;;;0.00;0.00;;;;;19.04;45.12;101559.06;5014258;28;46977;-70
2022/07/01 09:57:22;;;;;;;;;0.00;0.00;;;;;18.93;45.92;101545.34;5014823;28;45263;-69
2022/07/01 09:59:51;;;;;;;;;0.00;0.00;;;;;19.05;45.39;101556.25;5018893;28;45412;-70
2022/07/01 10:02:21;;;;;;;;;0.50;0.50;;;;;19.16;47.48;101556.38;5032998;28;45547;-68
2022/07/01 10:04:54;;;;;;;;;0.00;0.00;;;;;19.19;45.09;101553.47;5034232;28;45933;-70
2022/07/01 10:07:22;;;;;;;;;0.00;0.00;;;;;19.25;45.15;101563.03;5034222;28;45416;-67
2022/07/01 10:10:04;;;;;;;;;0.00;0.00;;;;;19.24;45.90;101544.97;5034340;28;45388;-74
2022/07/01 10:12:38;;;;;;;;;0.25;0.25;;;;;19.32;44.65;101553.47;5034315;28;45519;-74
2022/07/01 10:15:06;;;;;;;;;0.00;0.00;;;;;19.41;45.68;101563.69;5034504;28;45391;-73
2022/07/01 10:17:36;;;;;;;;;0.00;0.00;;;;;19.47;45.37;101557.88;5034062;28;45355;-70
2022/07/01 10:20:13;;;;;;;;;0.00;0.00;;;;;19.54;44.86;101566.47;5034621;28;45376;-73
2022/07/01 10:22:40;;;;;;;;;0.00;0.00;;;;;19.45;44.53;101554.38;5034126;28;45629;-80
2022/07/01 10:25:42;;;;;;;;;1.00;1.00;;;;;19.52;43.71;101571.16;5034490;28;45364;-73
2022/07/01 10:28:13;;;;;;;;;0.00;0.00;;;;;19.49;43.15;101564.06;5015740;28;45356;-73
2022/07/01 10:31:04;;;;;;;;;0.00;0.00;;;;;19.53;44.55;101557.44;5016379;28;45423;-71
2022/07/01 10:33:46;;;;;;;;;0.00;0.00;;;;;19.63;43.51;101564.00;5016002;28;46627;-72
2022/07/01 10:36:34;;;;;;;;;0.50;0.50;;;;;19.74;43.64;101552.31;5034412;28;45594;-76
2022/07/01 10:39:00;;;;;;;;;2.00;1.00;;;;;19.76;44.52;101555.81;5034544;28;45367;-76
2022/07/01 10:41:26;;;;;;;;;0.00;0.00;;;;;19.84;43.78;101547.09;5034251;28;45233;-68
2022/07/01 10:43:54;;;;;;;;;0.00;0.00;;;;;19.84;43.97;101550.69;5018111;28;46171;-70
2022/07/01 10:46:40;;;;;;;;;1.75;0.00;;;;;19.90;42.77;101549.38;5013744;28;46984;-70
2022/07/01 10:49:11;;;;;;;;;0.00;0.00;;;;;20.04;44.21;101551.97;5014054;28;45341;-69
2022/07/01 10:51:50;;;;;;;;;0.00;0.00;;;;;20.16;42.33;101550.22;5014512;28;45329;-72
2022/07/01 10:54:33;;;;;;;;;0.00;0.00;;;;;20.21;42.40;101540.72;5022774;28;45548;-70
2022/07/01 10:57:19;;;;;;;;;2.00;0.25;;;;;20.16;42.08;101558.38;5013405;28;45540;-71
2022/07/01 11:00:00;;;;;;;;;0.00;0.00;;;;;20.17;43.99;101568.28;5013729;28;45185;-69
2022/07/01 11:02:27;;;;;;;;;0.00;0.00;;;;;20.14;42.52;101558.50;5013691;28;45289;-70
2022/07/01 11:05:04;;;;;;;;;0.00;0.00;;;;;20.11;42.51;101574.16;5014151;28;45281;-70
2022/07/01 11:07:32;;;;;;;;;0.00;0.00;;;;;20.02;42.32;101562.09;5013775;28;46124;-68
2022/07/01 11:09:59;;;;;;;;;0.00;0.00;;;;;19.99;42.78;101549.56;5013605;28;45316;-72
2022/07/01 11:12:27;;;;;;;;;0.25;0.25;;;;;20.13;43.13;101564.06;5013623;28;45476;-72
2022/07/01 11:14:54;;;;;;;;;0.00;0.00;;;;;20.25;43.33;101569.44;5013242;28;45294;-71
2022/07/01 11:17:21;;;;;;;;;0.00;0.00;;;;;20.36;42.83;101553.22;5013156;28;45250;-71
2022/07/01 11:19:57;;;;;;;;;1.00;1.00;;;;;20.39;41.79;101542.13;5013823;28;45357;-72
2022/07/01 11:22:32;;;;;;;;;2.00;0.00;;;;;20.61;41.53;101559.56;5013846;28;45323;-72
2022/07/01 11:25:00;;;;;;;;;0.00;0.00;;;;;20.74;41.61;101546.78;5013694;28;45682;-72
2022/07/01 11:27:26;;;;;;;;;1.75;0.25;;;;;20.82;42.17;101562.56;5013175;28;45476;-70
2022/07/01 11:30:00;;;;;;;;;0.00;0.00;;;;;20.82;40.78;101557.09;5013750;28;45339;-69
2022/07/01 11:32:34;;;;;;;;;0.00;0.00;;;;;20.83;40.94;101558.84;5013267;28;45466;-70
2022/07/01 11:35:02;;;;;;;;;0.00;0.00;;;;;20.83;40.74;101558.84;5013326;28;45317;-69
2022/07/01 11:40:17;;;;;;;;;2.00;0.00;;;;;20.78;40.45;101568.22;5016682;28;45215;-69
2022/07/01 11:42:43;;;;;;;;;0.00;0.00;;;;;20.69;39.80;101548.97;5017964;28;45356;-69
2022/07/01 11:45:09;;;;;;;;;0.00;0.00;;;;;20.70;40.75;101550.72;5016009;28;45396;-70
2022/07/01 11:47:34;;;;;;;;;0.00;0.00;;;;;20.70;41.34;101558.88;5016346;28;45368;-70
2022/07/01 11:50:00;;;;;;;;;0.00;0.00;;;;;20.75;41.10;101571.19;5016475;28;45417;-71
2022/07/01 11:52:27;;;;;;;;;0.00;0.00;;;;;20.68;41.12;101567.16;5016921;28;45656;-70
2022/07/01 11:54:55;;;;;;;;;0.00;0.00;;;;;20.63;41.15;101566.66;5015727;28;45550;-70
2022/07/01 11:57:26;;;;;;;;;2.00;0.00;;;;;20.63;41.49;101561.22;5015905;28;46108;-68
2022/07/01 11:59:54;;;;;;;;;0.00;0.00;;;;;20.83;42.52;101570.63;5016272;28;45329;-69
2022/07/01 12:02:22;;;;;;;;;0.00;0.00;;;;;21.06;41.83;101560.69;5016160;28;45394;-70
2022/07/01 12:04:49;;;;;;;;;0.00;0.00;;;;;21.17;40.09;101563.50;5016459;28;45452;-70
2022/07/01 12:07:16;;;;;;;;;0.00;0.00;;;;;21.18;39.22;101553.47;5016133;28;46209;-69
2022/07/01 12:09:42;;;;;;;;;0.00;0.00;;;;;21.11;39.68;101544.81;5015976;28;45314;-70
2022/07/01 12:12:28;;;;;;;;;0.00;0.00;;;;;21.07;39.70;101557.84;5016624;28;45353;-71
2022/07/01 12:14:56;;;;;;;;;0.00;0.00;;;;;21.04;40.13;101570.81;5016057;28;45538;-71
2022/07/01 12:17:22;;;;;;;;;0.25;0.25;;;;;20.99;40.24;101576.66;5015663;28;45443;-71
2022/07/01 12:19:49;;;;;;;;;0.25;0.25;;;;;20.98;40.41;101571.31;5014722;28;45559;-72
2022/07/01 12:22:20;;;;;;;;;0.00;0.00;;;;;21.09;39.67;101569.50;5016558;28;45354;-69
2022/07/01 12:24:46;;;;;;;;;0.00;0.00;;;;;21.12;40.02;101563.78;5008114;28;45789;-70
2022/07/01 12:27:12;;;;;;;;;0.00;0.00;;;;;21.39;40.12;101554.50;5015730;28;45379;-69
2022/07/01 12:29:46;;;;;;;;;0.50;0.50;;;;;21.60;38.48;101557.41;5036185;28;45356;-72
2022/07/01 12:32:17;;;;;;;;;0.00;0.00;;;;;21.76;37.92;101557.91;5035832;28;45375;-70
2022/07/01 12:34:48;;;;;;;;;1.00;0.00;;;;;21.76;36.44;101547.00;5028953;28;45406;-68
2022/07/01 12:37:19;;;;;;;;;0.00;0.00;;;;;21.87;35.93;101563.38;5015585;28;46208;-70
2022/07/01 12:39:44;;;;;;;;;0.00;0.00;;;;;21.99;35.49;101556.97;5015745;28;45492;-69
2022/07/01 12:42:23;;;;;;;;;1.00;0.00;;;;;22.14;36.03;101557.56;5015718;28;45187;-70
2022/07/01 12:44:50;;;;;;;;;0.00;0.00;;;;;22.29;35.06;101550.00;5015375;28;45349;-70
2022/07/01 12:47:30;;;;;;;;;0.00;0.00;;;;;22.59;36.94;101548.31;5015322;28;45489;-68
2022/07/01 12:50:21;;;;;;;;;0.50;0.50;;;;;23.00;34.85;101546.72;5014380;28;45431;-71
2022/07/01 12:53:03;;;;;;;;;0.00;0.00;;;;;23.24;36.26;101554.69;5015361;28;45423;-71
2022/07/01 12:55:34;;;;;;;;;0.25;0.00;;;;;23.50;35.67;101534.16;5014877;28;45676;-69
2022/07/01 12:58:01;;;;;;;;;0.00;0.00;;;;;23.74;34.90;101542.94;5015323;28;46185;-70
2022/07/01 13:00:29;;;;;;;;;0.50;0.50;;;;;23.84;33.50;101551.22;5014631;28;45319;-70
2022/07/01 13:02:57;;;;;;;;;0.00;0.00;;;;;23.76;33.18;101557.38;4997462;28;45331;-68
2022/07/01 13:05:23;;;;;;;;;0.00;0.00;;;;;23.42;33.02;101546.75;4997498;28;45425;-70
2022/07/01 13:07:48;;;;;;;;;0.00;0.00;;;;;23.34;34.28;101553.75;5015157;28;45389;-70
2022/07/01 13:10:15;;;;;;;;;0.00;0.00;;;;;23.33;33.40;101559.38;5015571;28;45304;-70
2022/07/01 13:12:41;;;;;;;;;0.00;0.00;;;;;23.13;33.01;101562.97;5015947;28;45377;-69
2022/07/01 13:15:06;;;;;;;;;0.00;0.00;;;;;23.30;33.42;101559.66;5015270;28;45517;-69
2022/07/01 13:17:32;;;;;;;;;0.00;0.00;;;;;23.37;32.99;101544.44;5015209;28;45536;-69
2022/07/01 13:19:57;;;;;;;;;0.00;0.00;;;;;23.40;33.62;101544.16;5015217;28;45340;-69
2022/07/01 13:22:23;;;;;;;;;0.00;0.00;;;;;23.47;34.14;101548.09;5015293;28;45294;-71
2022/07/01 13:24:48;;;;;;;;;0.00;0.00;;;;;23.45;35.05;101541.88;5015248;28;45538;-69
2022/07/01 13:27:14;;;;;;;;;0.00;0.00;;;;;23.54;34.68;101551.19;5014938;28;46605;-70
2022/07/01 13:29:40;;;;;;;;;0.00;0.00;;;;;23.55;34.00;101559.28;5015233;28;45376;-69
2022/07/01 13:32:05;;;;;;;;;0.00;0.00;;;;;23.39;34.83;101546.00;5014847;28;45365;-70
2022/07/01 13:34:34;;;;;;;;;0.00;0.00;;;;;23.34;36.20;101561.97;5015360;28;45433;-69
2022/07/01 13:37:00;;;;;;;;;0.00;0.00;;;;;23.30;34.75;101559.66;5015054;28;46024;-71
2022/07/01 13:39:25;;;;;;;;;0.00;0.00;;;;;23.30;35.82;101570.59;5014820;28;45353;-69
2022/07/01 13:41:50;;;;;;;;;1.00;0.00;;;;;23.20;35.07;101565.03;5014711;28;45364;-70
2022/07/01 13:44:16;;;;;;;;;0.00;0.00;;;;;23.12;35.97;101569.44;5014414;28;45602;-70
2022/07/01 13:46:41;;;;;;;;;0.75;0.00;;;;;23.06;35.74;101564.47;5014330;28;45485;-70
2022/07/01 13:49:07;;;;;;;;;0.00;0.00;;;;;23.08;35.97;101563.34;5014762;28;45355;-69
2022/07/01 13:51:32;;;;;;;;;0.00;0.00;;;;;23.07;35.96;101567.06;5014732;28;45379;-69
2022/07/01 13:53:58;;;;;;;;;0.00;0.00;;;;;23.05;35.67;101569.09;5014523;28;45385;-69
2022/07/01 13:56:27;;;;;;;;;0.00;0.00;;;;;23.04;35.62;101582.91;5014599;28;45297;-71
2022/07/01 13:58:53;;;;;;;;;0.00;0.00;;;;;22.99;35.59;101586.00;5013102;28;45879;-69
2022/07/01 14:01:19;;;;;;;;;0.00;0.00;;;;;22.94;35.86;101577.34;5014216;28;45383;-69
2022/07/01 14:03:45;;;;;;;;;0.00;0.00;;;;;22.81;35.42;101593.88;5014516;28;45301;-71
2022/07/01 14:06:11;;;;;;;;;0.00;0.00;;;;;22.69;35.67;101586.69;5014190;28;46280;-69
2022/07/01 14:08:36;;;;;;;;;0.00;0.00;;;;;22.67;34.99;101583.22;5014361;28;45377;-70
2022/07/01 14:11:02;;;;;;;;;0.00;0.00;;;;;22.70;35.32;101590.31;5013269;28;45499;-70
2022/07/01 14:13:27;;;;;;;;;0.00;0.00;;;;;22.72;35.51;101588.28;5014441;28;45483;-69
2022/07/01 14:15:53;;;;;;;;;0.00;0.00;;;;;22.72;35.87;101582.81;5014244;28;45921;-70
2022/07/01 14:18:19;;;;;;;;;0.00;0.00;;;;;22.73;36.30;101576.34;5014131;28;45376;-69
2022/07/01 14:20:44;;;;;;;;;0.00;0.00;;;;;22.74;35.44;101587.19;5014413;28;45573;-68
2022/07/01 14:23:10;;;;;;;;;0.00;0.00;;;;;22.78;36.24;101585.09;5014360;28;45407;-69
2022/07/01 14:25:35;;;;;;;;;0.00;0.00;;;;;22.78;35.42;101593.28;5014269;28;46129;-69
2022/07/01 14:28:00;;;;;;;;;0.75;0.00;;;;;22.68;34.98;101595.03;5014432;28;45313;-69
2022/07/01 14:30:26;;;;;;;;;0.00;0.00;;;;;22.59;35.14;101596.66;5012856;28;45282;-68
2022/07/01 14:32:51;;;;;;;;;0.00;0.00;;;;;22.57;35.93;101593.16;5013703;28;45392;-69
2022/07/01 14:35:16;;;;;;;;;0.00;0.00;;;;;22.59;35.71;101588.44;5004359;28;45414;-70
2022/07/01 14:37:43;;;;;;;;;0.00;0.00;;;;;22.60;35.62;101596.53;5005969;28;45306;-67
2022/07/01 14:40:09;;;;;;;;;0.00;0.00;;;;;22.53;35.76;101575.31;5014118;28;45361;-70
2022/07/01 14:42:35;;;;;;;;;2.00;0.00;;;;;22.80;35.65;101592.16;5014973;28;45295;-69
2022/07/01 14:45:02;;;;;;;;;0.00;0.00;;;;;22.99;35.51;101592.34;5013568;28;45345;-70
2022/07/01 14:47:28;;;;;;;;;0.00;0.00;;;;;23.01;34.68;101592.22;5013876;28;45376;-68
2022/07/01 14:49:53;;;;;;;;;0.00;0.00;;;;;23.04;35.18;101591.97;5014253;28;45298;-68
2022/07/01 14:52:23;;;;;;;;;3.75;0.00;;;;;23.04;35.20;101591.09;5014074;28;45671;-70
2022/07/01 14:54:49;;;;;;;;;0.00;0.00;;;;;23.02;34.96;101592.09;5013660;28;47211;-70
2022/07/01 14:57:15;;;;;;;;;0.00;0.00;;;;;22.90;34.40;101579.44;5013655;28;45840;-69
2022/07/01 14:59:40;;;;;;;;;0.00;0.00;;;;;23.06;35.80;101592.69;5012399;28;45337;-69
2022/07/01 15:02:06;;;;;;;;;0.00;0.00;;;;;23.11;35.24;101587.72;5013469;28;45592;-68
2022/07/01 15:04:31;;;;;;;;;1.00;0.00;;;;;23.14;34.73;101587.44;5013860;28;45533;-69
2022/07/01 15:06:58;;;;;;;;;0.00;0.00;;;;;23.01;34.76;101582.16;5014059;28;45382;-70
2022/07/01 15:09:23;;;;;;;;;0.00;0.00;;;;;23.10;34.73;101591.44;5013760;28;45420;-69
2022/07/01 15:11:49;;;;;;;;;0.00;0.00;;;;;23.10;34.13;101583.25;5013699;28;45340;-68
2022/07/01 15:14:15;;;;;;;;;1.00;0.00;;;;;23.21;34.15;101583.19;5016139;28;46354;-71
2022/07/01 15:16:40;;;;;;;;;0.00;0.00;;;;;23.41;34.25;101578.72;5015745;28;45350;-69
2022/07/01 15:19:06;;;;;;;;;0.00;0.00;;;;;23.64;32.93;101580.38;5017053;28;45355;-68
2022/07/01 15:21:31;;;;;;;;;0.00;0.00;;;;;24.04;32.91;101583.19;5016847;28;45273;-69
2022/07/01 15:23:56;;;;;;;;;0.00;0.00;;;;;24.59;31.73;101582.81;5016791;28;45761;-71
2022/07/01 15:26:22;;;;;;;;;0.00;0.00;;;;;25.22;31.25;101581.50;5017173;28;45404;-68
2022/07/01 15:28:48;;;;;;;;;0.25;0.00;;;;;25.90;31.21;101563.06;5016968;28;45361;-71
2022/07/01 15:31:13;;;;;;;;;0.00;0.00;;;;;26.24;29.20;101568.84;5016137;28;46780;-69
2022/07/01 15:33:38;;;;;;;;;0.00;0.00;;;;;26.28;29.72;101579.47;5016732;28;46253;-69
2022/07/01 15:36:04;;;;;;;;;0.00;0.00;;;;;26.23;29.50;101572.63;5017104;28;45401;-70
2022/07/01 15:38:29;;;;;;;;;0.00;0.00;;;;;26.08;29.63;101572.25;5017067;28;45578;-69
2022/07/01 15:40:55;;;;;;;;;0.00;0.00;;;;;25.87;29.60;101575.22;5016918;28;45176;-69
2022/07/01 15:43:20;;;;;;;;;0.00;0.00;;;;;25.60;30.09;101559.50;5017376;28;46209;-69
2022/07/01 15:45:45;;;;;;;;;0.25;0.00;;;;;25.50;30.83;101571.53;5016796;28;45475;-68
2022/07/01 15:48:12;;;;;;;;;0.00;0.00;;;;;25.33;31.04;101572.25;5016533;28;45638;-69
2022/07/01 15:50:40;;;;;;;;;0.00;0.00;;;;;25.07;30.65;101586.56;5015370;28;45465;-69
2022/07/01 15:53:07;;;;;;;;;0.00;0.00;;;;;24.84;30.69;101585.91;5016266;28;45479;-69
2022/07/01 15:55:33;;;;;;;;;0.00;0.00;;;;;24.80;30.95;101580.88;5016761;28;45282;-69
2022/07/01 15:57:58;;;;;;;;;0.75;0.00;;;;;24.88;31.36;101583.75;5016325;28;45552;-70
2022/07/01 16:00:24;;;;;;;;;0.00;0.00;;;;;25.04;31.51;101572.25;5016807;28;45502;-68
2022/07/01 16:02:50;;;;;;;;;2.50;0.00;;;;;25.32;31.37;101581.50;5016384;28;45203;-71
2022/07/01 16:05:15;;;;;;;;;0.75;0.00;;;;;25.33;30.61;101586.84;5015229;28;45392;-69
2022/07/01 16:07:42;;;;;;;;;0.00;0.00;;;;;25.20;30.51;101584.38;5011344;28;45321;-69